sensor_id;sensor_type;location;lat;lon;timestamp;temperature;humidity
56162;DHT22;42045;52.986;6.014;2023-07-08T00:00:07;17.20;99.90
56162;DHT22;42045;52.986;6.014;2023-07-08T00:02:33;17.10;99.90
56162;DHT22;42045;52.986;6.014;2023-07-08T00:04:59;17.10;99.90
56162;DHT22;42045;52.986;6.014;2023-07-08T00:07:24;17.10;99.90
56162;DHT22;42045;52.986;6.014;2023-07-08T00:09:50;17.10;99.90
56162;DHT22;42045;52.986;6.014;2023-07-08T00:12:15;17.00;99.90
56162;DHT22;42045;52.986;6.014;2023-07-08T00:14:41;17.00;99.90
56162;DHT22;42045;52.986;6.014;2023-07-08T00:17:11;17.00;99.90
56162;DHT22;42045;52.986;6.014;2023-07-08T00:19:38;17.00;99.90
56162;DHT22;42045;52.986;6.014;2023-07-08T00:22:14;16.90;99.90
56162;DHT22;42045;52.986;6.014;2023-07-08T00:24:41;16.90;99.90
56162;DHT22;42045;52.986;6.014;2023-07-08T00:27:11;16.90;99.90
56162;DHT22;42045;52.986;6.014;2023-07-08T00:29:38;16.90;99.90
56162;DHT22;42045;52.986;6.014;2023-07-08T00:32:13;16.90;99.90
56162;DHT22;42045;52.986;6.014;2023-07-08T00:34:39;16.80;99.90
56162;DHT22;42045;52.986;6.014;2023-07-08T00:37:05;16.80;99.90
56162;DHT22;42045;52.986;6.014;2023-07-08T00:39:32;16.80;99.90
56162;DHT22;42045;52.986;6.014;2023-07-08T00:42:00;16.70;99.90
56162;DHT22;42045;52.986;6.014;2023-07-08T00:44:26;16.70;99.90
56162;DHT22;42045;52.986;6.014;2023-07-08T00:47:09;16.70;99.90
56162;DHT22;42045;52.986;6.014;2023-07-08T00:49:46;16.70;99.90
56162;DHT22;42045;52.986;6.014;2023-07-08T00:52:27;16.70;99.90
56162;DHT22;42045;52.986;6.014;2023-07-08T00:55:04;16.60;99.90
56162;DHT22;42045;52.986;6.014;2023-07-08T00:57:34;16.60;99.90
56162;DHT22;42045;52.986;6.014;2023-07-08T01:00:10;16.60;99.90
56162;DHT22;42045;52.986;6.014;2023-07-08T01:02:42;16.60;99.90
56162;DHT22;42045;52.986;6.014;2023-07-08T01:05:29;16.60;99.90
56162;DHT22;42045;52.986;6.014;2023-07-08T01:07:59;16.60;99.90
56162;DHT22;42045;52.986;6.014;2023-07-08T01:10:36;16.50;99.90
56162;DHT22;42045;52.986;6.014;2023-07-08T01:13:05;16.50;99.90
56162;DHT22;42045;52.986;6.014;2023-07-08T01:15:39;16.50;99.90
56162;DHT22;42045;52.986;6.014;2023-07-08T01:18:08;16.50;99.90
56162;DHT22;42045;52.986;6.014;2023-07-08T01:20:34;16.50;99.90
56162;DHT22;42045;52.986;6.014;2023-07-08T01:23:00;16.40;99.90
56162;DHT22;42045;52.986;6.014;2023-07-08T01:25:25;16.40;99.90
56162;DHT22;42045;52.986;6.014;2023-07-08T01:27:54;16.40;99.90
56162;DHT22;42045;52.986;6.014;2023-07-08T01:30:21;16.40;99.90
56162;DHT22;42045;52.986;6.014;2023-07-08T01:32:54;16.40;99.90
56162;DHT22;42045;52.986;6.014;2023-07-08T01:35:21;16.30;99.90
56162;DHT22;42045;52.986;6.014;2023-07-08T01:37:52;16.30;99.90
56162;DHT22;42045;52.986;6.014;2023-07-08T01:42:45;16.30;99.90
56162;DHT22;42045;52.986;6.014;2023-07-08T01:45:15;16.30;99.90
56162;DHT22;42045;52.986;6.014;2023-07-08T01:47:43;16.20;99.90
56162;DHT22;42045;52.986;6.014;2023-07-08T01:50:11;16.20;99.90
56162;DHT22;42045;52.986;6.014;2023-07-08T01:52:37;16.10;99.90
56162;DHT22;42045;52.986;6.014;2023-07-08T01:55:04;16.10;99.90
56162;DHT22;42045;52.986;6.014;2023-07-08T01:57:30;16.10;99.90
56162;DHT22;42045;52.986;6.014;2023-07-08T01:59:55;16.10;99.90
56162;DHT22;42045;52.986;6.014;2023-07-08T02:02:21;16.10;99.90
56162;DHT22;42045;52.986;6.014;2023-07-08T02:04:49;16.10;99.90
56162;DHT22;42045;52.986;6.014;2023-07-08T02:07:15;16.00;99.90
56162;DHT22;42045;52.986;6.014;2023-07-08T02:09:41;16.00;99.90
56162;DHT22;42045;52.986;6.014;2023-07-08T02:12:06;16.00;99.90
56162;DHT22;42045;52.986;6.014;2023-07-08T02:14:32;15.90;99.90
56162;DHT22;42045;52.986;6.014;2023-07-08T02:16:58;15.90;99.90
56162;DHT22;42045;52.986;6.014;2023-07-08T02:19:24;15.90;99.90
56162;DHT22;42045;52.986;6.014;2023-07-08T02:21:50;15.90;99.90
56162;DHT22;42045;52.986;6.014;2023-07-08T02:24:17;15.80;99.90
56162;DHT22;42045;52.986;6.014;2023-07-08T02:26:43;15.80;99.90
56162;DHT22;42045;52.986;6.014;2023-07-08T02:29:09;15.80;99.90
56162;DHT22;42045;52.986;6.014;2023-07-08T02:31:34;15.70;99.90
56162;DHT22;42045;52.986;6.014;2023-07-08T02:34:00;15.70;99.90
56162;DHT22;42045;52.986;6.014;2023-07-08T02:36:27;15.70;99.90
56162;DHT22;42045;52.986;6.014;2023-07-08T02:38:53;15.70;99.90
56162;DHT22;42045;52.986;6.014;2023-07-08T02:41:19;15.70;99.90
56162;DHT22;42045;52.986;6.014;2023-07-08T02:43:45;15.70;99.90
56162;DHT22;42045;52.986;6.014;2023-07-08T02:46:10;15.70;99.90
56162;DHT22;42045;52.986;6.014;2023-07-08T02:48:36;15.70;99.90
56162;DHT22;42045;52.986;6.014;2023-07-08T02:51:03;15.70;99.90
56162;DHT22;42045;52.986;6.014;2023-07-08T02:53:29;15.70;99.90
56162;DHT22;42045;52.986;6.014;2023-07-08T02:55:55;15.70;99.90
56162;DHT22;42045;52.986;6.014;2023-07-08T02:58:21;15.70;99.90
56162;DHT22;42045;52.986;6.014;2023-07-08T03:00:57;15.70;99.90
56162;DHT22;42045;52.986;6.014;2023-07-08T03:03:26;15.70;99.90
56162;DHT22;42045;52.986;6.014;2023-07-08T03:05:57;15.70;99.90
56162;DHT22;42045;52.986;6.014;2023-07-08T03:08:24;15.70;99.90
56162;DHT22;42045;52.986;6.014;2023-07-08T03:10:56;15.80;99.90
56162;DHT22;42045;52.986;6.014;2023-07-08T03:13:23;15.80;99.90
56162;DHT22;42045;52.986;6.014;2023-07-08T03:15:49;15.80;99.90
56162;DHT22;42045;52.986;6.014;2023-07-08T03:18:15;15.80;99.90
56162;DHT22;42045;52.986;6.014;2023-07-08T03:20:41;15.80;99.90
56162;DHT22;42045;52.986;6.014;2023-07-08T03:23:11;15.80;99.90
56162;DHT22;42045;52.986;6.014;2023-07-08T03:25:37;15.80;99.90
56162;DHT22;42045;52.986;6.014;2023-07-08T03:28:03;15.80;99.90
56162;DHT22;42045;52.986;6.014;2023-07-08T03:30:32;15.80;99.90
56162;DHT22;42045;52.986;6.014;2023-07-08T03:32:58;15.80;99.90
56162;DHT22;42045;52.986;6.014;2023-07-08T03:35:24;15.70;99.90
56162;DHT22;42045;52.986;6.014;2023-07-08T03:37:51;15.80;99.90
56162;DHT22;42045;52.986;6.014;2023-07-08T03:40:16;15.70;99.90
56162;DHT22;42045;52.986;6.014;2023-07-08T03:42:42;15.80;99.90
56162;DHT22;42045;52.986;6.014;2023-07-08T03:45:08;15.70;99.90
56162;DHT22;42045;52.986;6.014;2023-07-08T03:47:34;15.80;99.90
56162;DHT22;42045;52.986;6.014;2023-07-08T03:49:59;15.80;99.90
56162;DHT22;42045;52.986;6.014;2023-07-08T03:52:25;15.80;99.90
56162;DHT22;42045;52.986;6.014;2023-07-08T03:54:51;15.90;99.90
56162;DHT22;42045;52.986;6.014;2023-07-08T03:57:16;16.10;99.90
56162;DHT22;42045;52.986;6.014;2023-07-08T03:59:42;16.70;99.90
56162;DHT22;42045;52.986;6.014;2023-07-08T04:02:11;17.20;99.90
56162;DHT22;42045;52.986;6.014;2023-07-08T04:04:37;17.70;99.90
56162;DHT22;42045;52.986;6.014;2023-07-08T04:07:06;18.20;99.90
56162;DHT22;42045;52.986;6.014;2023-07-08T04:09:35;18.60;99.90
56162;DHT22;42045;52.986;6.014;2023-07-08T04:12:00;19.10;99.90
56162;DHT22;42045;52.986;6.014;2023-07-08T04:14:26;19.40;99.90
56162;DHT22;42045;52.986;6.014;2023-07-08T04:16:55;19.80;99.90
56162;DHT22;42045;52.986;6.014;2023-07-08T04:19:23;20.10;99.90
56162;DHT22;42045;52.986;6.014;2023-07-08T04:21:50;20.50;99.90
56162;DHT22;42045;52.986;6.014;2023-07-08T04:24:17;20.80;99.90
56162;DHT22;42045;52.986;6.014;2023-07-08T04:26:44;21.10;99.90
56162;DHT22;42045;52.986;6.014;2023-07-08T04:29:13;21.20;99.90
56162;DHT22;42045;52.986;6.014;2023-07-08T04:31:39;21.50;99.90
56162;DHT22;42045;52.986;6.014;2023-07-08T04:34:05;21.70;99.90
56162;DHT22;42045;52.986;6.014;2023-07-08T04:36:32;22.00;99.90
56162;DHT22;42045;52.986;6.014;2023-07-08T04:38:58;22.20;99.90
56162;DHT22;42045;52.986;6.014;2023-07-08T04:41:25;22.60;99.90
56162;DHT22;42045;52.986;6.014;2023-07-08T04:43:52;22.80;99.90
56162;DHT22;42045;52.986;6.014;2023-07-08T04:49:01;23.30;99.50
56162;DHT22;42045;52.986;6.014;2023-07-08T04:51:26;23.60;99.60
56162;DHT22;42045;52.986;6.014;2023-07-08T04:53:52;23.90;99.40
56162;DHT22;42045;52.986;6.014;2023-07-08T04:56:18;24.10;99.10
56162;DHT22;42045;52.986;6.014;2023-07-08T04:58:44;24.40;97.70
56162;DHT22;42045;52.986;6.014;2023-07-08T05:01:10;25.10;98.40
56162;DHT22;42045;52.986;6.014;2023-07-08T05:03:35;25.40;97.70
56162;DHT22;42045;52.986;6.014;2023-07-08T05:06:01;25.70;97.10
56162;DHT22;42045;52.986;6.014;2023-07-08T05:08:27;26.10;96.70
56162;DHT22;42045;52.986;6.014;2023-07-08T05:10:52;26.20;96.20
56162;DHT22;42045;52.986;6.014;2023-07-08T05:13:18;26.70;95.60
56162;DHT22;42045;52.986;6.014;2023-07-08T05:15:43;27.10;94.80
56162;DHT22;42045;52.986;6.014;2023-07-08T05:18:09;27.30;95.10
56162;DHT22;42045;52.986;6.014;2023-07-08T05:20:35;27.60;94.50
56162;DHT22;42045;52.986;6.014;2023-07-08T05:23:02;27.90;94.20
56162;DHT22;42045;52.986;6.014;2023-07-08T05:25:31;28.30;93.20
56162;DHT22;42045;52.986;6.014;2023-07-08T05:27:57;28.00;93.00
56162;DHT22;42045;52.986;6.014;2023-07-08T05:30:23;28.10;93.10
56162;DHT22;42045;52.986;6.014;2023-07-08T05:32:48;28.30;92.90
56162;DHT22;42045;52.986;6.014;2023-07-08T05:35:14;28.60;92.80
56162;DHT22;42045;52.986;6.014;2023-07-08T05:37:40;28.60;92.50
56162;DHT22;42045;52.986;6.014;2023-07-08T05:40:07;28.70;92.20
56162;DHT22;42045;52.986;6.014;2023-07-08T05:42:33;28.90;91.10
56162;DHT22;42045;52.986;6.014;2023-07-08T05:44:59;28.90;91.60
56162;DHT22;42045;52.986;6.014;2023-07-08T05:47:24;29.30;91.20
56162;DHT22;42045;52.986;6.014;2023-07-08T05:49:50;29.60;90.90
56162;DHT22;42045;52.986;6.014;2023-07-08T05:52:16;29.80;90.80
56162;DHT22;42045;52.986;6.014;2023-07-08T05:54:41;30.10;90.30
56162;DHT22;42045;52.986;6.014;2023-07-08T05:57:09;30.10;90.10
56162;DHT22;42045;52.986;6.014;2023-07-08T05:59:36;30.00;89.80
56162;DHT22;42045;52.986;6.014;2023-07-08T06:02:06;30.00;88.90
56162;DHT22;42045;52.986;6.014;2023-07-08T06:04:31;29.90;88.20
56162;DHT22;42045;52.986;6.014;2023-07-08T06:06:57;30.30;89.00
56162;DHT22;42045;52.986;6.014;2023-07-08T06:09:23;30.40;87.80
56162;DHT22;42045;52.986;6.014;2023-07-08T06:11:48;30.70;87.30
56162;DHT22;42045;52.986;6.014;2023-07-08T06:14:14;30.90;86.70
56162;DHT22;42045;52.986;6.014;2023-07-08T06:16:40;31.20;86.90
56162;DHT22;42045;52.986;6.014;2023-07-08T06:19:05;31.30;85.80
56162;DHT22;42045;52.986;6.014;2023-07-08T06:21:31;31.80;86.10
56162;DHT22;42045;52.986;6.014;2023-07-08T06:23:57;32.00;85.40
56162;DHT22;42045;52.986;6.014;2023-07-08T06:26:23;32.00;84.80
56162;DHT22;42045;52.986;6.014;2023-07-08T06:28:49;32.30;83.10
56162;DHT22;42045;52.986;6.014;2023-07-08T06:31:15;31.80;82.50
56162;DHT22;42045;52.986;6.014;2023-07-08T06:33:41;31.40;82.90
56162;DHT22;42045;52.986;6.014;2023-07-08T06:36:07;31.30;82.20
56162;DHT22;42045;52.986;6.014;2023-07-08T06:38:33;31.30;82.50
56162;DHT22;42045;52.986;6.014;2023-07-08T06:40:59;31.60;83.20
56162;DHT22;42045;52.986;6.014;2023-07-08T06:43:24;32.10;83.10
56162;DHT22;42045;52.986;6.014;2023-07-08T06:45:50;32.20;82.50
56162;DHT22;42045;52.986;6.014;2023-07-08T06:48:16;32.20;81.70
56162;DHT22;42045;52.986;6.014;2023-07-08T06:50:45;32.50;82.30
56162;DHT22;42045;52.986;6.014;2023-07-08T06:53:11;32.30;81.80
56162;DHT22;42045;52.986;6.014;2023-07-08T06:55:36;32.10;82.20
56162;DHT22;42045;52.986;6.014;2023-07-08T06:58:02;32.40;82.40
56162;DHT22;42045;52.986;6.014;2023-07-08T07:00:28;32.60;81.80
56162;DHT22;42045;52.986;6.014;2023-07-08T07:02:53;32.50;81.40
56162;DHT22;42045;52.986;6.014;2023-07-08T07:05:19;32.20;81.10
56162;DHT22;42045;52.986;6.014;2023-07-08T07:07:44;32.10;81.70
56162;DHT22;42045;52.986;6.014;2023-07-08T07:10:10;32.30;81.50
56162;DHT22;42045;52.986;6.014;2023-07-08T07:12:36;32.50;80.60
56162;DHT22;42045;52.986;6.014;2023-07-08T07:15:02;32.40;81.40
56162;DHT22;42045;52.986;6.014;2023-07-08T07:17:29;32.10;79.70
56162;DHT22;42045;52.986;6.014;2023-07-08T07:19:54;32.50;80.90
56162;DHT22;42045;52.986;6.014;2023-07-08T07:22:21;32.60;81.30
56162;DHT22;42045;52.986;6.014;2023-07-08T07:24:46;32.50;80.50
56162;DHT22;42045;52.986;6.014;2023-07-08T07:27:12;32.00;80.90
56162;DHT22;42045;52.986;6.014;2023-07-08T07:29:44;31.40;81.60
56162;DHT22;42045;52.986;6.014;2023-07-08T07:32:11;30.50;82.40
56162;DHT22;42045;52.986;6.014;2023-07-08T07:34:37;29.60;84.10
56162;DHT22;42045;52.986;6.014;2023-07-08T07:37:04;28.90;86.20
56162;DHT22;42045;52.986;6.014;2023-07-08T07:39:29;29.00;87.40
56162;DHT22;42045;52.986;6.014;2023-07-08T07:41:55;28.80;88.60
56162;DHT22;42045;52.986;6.014;2023-07-08T07:44:21;28.50;89.70
56162;DHT22;42045;52.986;6.014;2023-07-08T07:46:46;28.30;89.30
56162;DHT22;42045;52.986;6.014;2023-07-08T07:49:13;28.10;89.20
56162;DHT22;42045;52.986;6.014;2023-07-08T07:51:38;28.10;90.40
56162;DHT22;42045;52.986;6.014;2023-07-08T07:54:04;27.90;90.10
56162;DHT22;42045;52.986;6.014;2023-07-08T07:56:30;27.70;90.00
56162;DHT22;42045;52.986;6.014;2023-07-08T07:58:55;27.70;90.30
56162;DHT22;42045;52.986;6.014;2023-07-08T08:01:21;27.40;90.30
56162;DHT22;42045;52.986;6.014;2023-07-08T08:03:48;27.30;90.90
56162;DHT22;42045;52.986;6.014;2023-07-08T08:06:16;27.20;91.50
56162;DHT22;42045;52.986;6.014;2023-07-08T08:08:44;27.30;91.70
56162;DHT22;42045;52.986;6.014;2023-07-08T08:11:10;27.40;91.20
56162;DHT22;42045;52.986;6.014;2023-07-08T08:13:36;27.40;91.00
56162;DHT22;42045;52.986;6.014;2023-07-08T08:16:02;27.50;91.00
56162;DHT22;42045;52.986;6.014;2023-07-08T08:18:28;27.50;91.00
56162;DHT22;42045;52.986;6.014;2023-07-08T08:20:53;27.60;91.50
56162;DHT22;42045;52.986;6.014;2023-07-08T08:23:19;27.40;91.70
56162;DHT22;42045;52.986;6.014;2023-07-08T08:25:45;27.40;92.50
56162;DHT22;42045;52.986;6.014;2023-07-08T08:28:10;27.40;91.40
56162;DHT22;42045;52.986;6.014;2023-07-08T08:30:36;27.50;91.20
56162;DHT22;42045;52.986;6.014;2023-07-08T08:33:10;27.40;91.30
56162;DHT22;42045;52.986;6.014;2023-07-08T08:35:45;27.50;91.60
56162;DHT22;42045;52.986;6.014;2023-07-08T08:38:14;27.70;91.90
56162;DHT22;42045;52.986;6.014;2023-07-08T08:40:41;27.70;91.50
56162;DHT22;42045;52.986;6.014;2023-07-08T08:43:15;27.80;91.80
56162;DHT22;42045;52.986;6.014;2023-07-08T08:45:59;28.00;92.10
56162;DHT22;42045;52.986;6.014;2023-07-08T08:48:26;27.80;91.50
56162;DHT22;42045;52.986;6.014;2023-07-08T08:50:57;27.70;91.20
56162;DHT22;42045;52.986;6.014;2023-07-08T08:53:26;27.80;91.20
56162;DHT22;42045;52.986;6.014;2023-07-08T08:56:03;27.70;91.40
56162;DHT22;42045;52.986;6.014;2023-07-08T08:58:41;27.70;91.60
56162;DHT22;42045;52.986;6.014;2023-07-08T09:01:14;27.60;91.80
56162;DHT22;42045;52.986;6.014;2023-07-08T09:03:46;27.50;91.90
56162;DHT22;42045;52.986;6.014;2023-07-08T09:06:27;27.60;92.30
56162;DHT22;42045;52.986;6.014;2023-07-08T09:08:54;27.70;92.30
56162;DHT22;42045;52.986;6.014;2023-07-08T09:11:42;27.80;91.90
56162;DHT22;42045;52.986;6.014;2023-07-08T09:14:30;27.80;91.50
56162;DHT22;42045;52.986;6.014;2023-07-08T09:22:37;27.70;91.70
56162;DHT22;42045;52.986;6.014;2023-07-08T09:27:48;27.80;92.40
56162;DHT22;42045;52.986;6.014;2023-07-08T09:30:16;27.80;92.30
56162;DHT22;42045;52.986;6.014;2023-07-08T09:32:42;27.90;91.70
56162;DHT22;42045;52.986;6.014;2023-07-08T09:35:09;27.90;91.80
56162;DHT22;42045;52.986;6.014;2023-07-08T09:37:46;28.10;92.40
56162;DHT22;42045;52.986;6.014;2023-07-08T09:40:22;28.20;92.40
56162;DHT22;42045;52.986;6.014;2023-07-08T09:42:51;28.10;92.10
56162;DHT22;42045;52.986;6.014;2023-07-08T09:45:22;28.20;92.10
56162;DHT22;42045;52.986;6.014;2023-07-08T09:47:54;28.20;91.70
56162;DHT22;42045;52.986;6.014;2023-07-08T09:50:26;28.20;91.80
56162;DHT22;42045;52.986;6.014;2023-07-08T09:52:54;28.20;92.10
56162;DHT22;42045;52.986;6.014;2023-07-08T09:55:20;28.20;92.20
56162;DHT22;42045;52.986;6.014;2023-07-08T09:57:47;28.30;93.00
56162;DHT22;42045;52.986;6.014;2023-07-08T10:00:17;28.30;92.10
56162;DHT22;42045;52.986;6.014;2023-07-08T10:02:55;28.40;92.60
56162;DHT22;42045;52.986;6.014;2023-07-08T10:05:38;28.40;92.90
56162;DHT22;42045;52.986;6.014;2023-07-08T10:08:25;28.40;92.60
56162;DHT22;42045;52.986;6.014;2023-07-08T10:13:44;28.40;93.10
56162;DHT22;42045;52.986;6.014;2023-07-08T10:16:23;28.50;92.40
56162;DHT22;42045;52.986;6.014;2023-07-08T10:18:50;28.60;92.60
56162;DHT22;42045;52.986;6.014;2023-07-08T10:24:58;28.70;92.80
56162;DHT22;42045;52.986;6.014;2023-07-08T10:30:13;28.90;92.30
56162;DHT22;42045;52.986;6.014;2023-07-08T10:40:49;28.80;92.60
56162;DHT22;42045;52.986;6.014;2023-07-08T10:43:44;28.90;92.40
56162;DHT22;42045;52.986;6.014;2023-07-08T10:55:01;29.10;92.00
56162;DHT22;42045;52.986;6.014;2023-07-08T11:03:18;29.30;92.50
56162;DHT22;42045;52.986;6.014;2023-07-08T11:08:30;29.60;92.20
56162;DHT22;42045;52.986;6.014;2023-07-08T11:11:09;29.80;92.20
56162;DHT22;42045;52.986;6.014;2023-07-08T11:13:42;29.70;91.30
56162;DHT22;42045;52.986;6.014;2023-07-08T11:16:21;29.60;91.00
56162;DHT22;42045;52.986;6.014;2023-07-08T11:21:52;29.70;91.00
56162;DHT22;42045;52.986;6.014;2023-07-08T11:27:19;29.80;91.50
56162;DHT22;42045;52.986;6.014;2023-07-08T11:30:13;29.90;91.20
56162;DHT22;42045;52.986;6.014;2023-07-08T11:32:42;29.90;90.40
56162;DHT22;42045;52.986;6.014;2023-07-08T11:35:37;29.90;91.40
56162;DHT22;42045;52.986;6.014;2023-07-08T11:38:03;30.00;91.20
56162;DHT22;42045;52.986;6.014;2023-07-08T11:40:30;30.10;91.60
56162;DHT22;42045;52.986;6.014;2023-07-08T11:43:05;30.20;92.20
56162;DHT22;42045;52.986;6.014;2023-07-08T11:45:38;30.30;92.20
56162;DHT22;42045;52.986;6.014;2023-07-08T11:48:18;30.30;91.30
56162;DHT22;42045;52.986;6.014;2023-07-08T11:50:47;30.20;90.10
56162;DHT22;42045;52.986;6.014;2023-07-08T11:56:00;30.30;90.20
56162;DHT22;42045;52.986;6.014;2023-07-08T11:58:32;30.30;90.80
56162;DHT22;42045;52.986;6.014;2023-07-08T12:04:52;30.50;90.80
56162;DHT22;42045;52.986;6.014;2023-07-08T12:06:54;30.70;91.20
56162;DHT22;42045;52.986;6.014;2023-07-08T12:09:57;30.80;90.90
56162;DHT22;42045;52.986;6.014;2023-07-08T12:12:40;30.80;91.70
56162;DHT22;42045;52.986;6.014;2023-07-08T12:17:45;31.10;88.80
56162;DHT22;42045;52.986;6.014;2023-07-08T12:20:37;31.10;86.70
56162;DHT22;42045;52.986;6.014;2023-07-08T12:23:13;31.10;84.90
56162;DHT22;42045;52.986;6.014;2023-07-08T12:25:39;31.10;89.70
56162;DHT22;42045;52.986;6.014;2023-07-08T12:28:05;31.20;85.90
56162;DHT22;42045;52.986;6.014;2023-07-08T12:30:32;31.10;85.50
56162;DHT22;42045;52.986;6.014;2023-07-08T12:33:01;31.10;84.90
56162;DHT22;42045;52.986;6.014;2023-07-08T12:35:36;31.30;88.90
56162;DHT22;42045;52.986;6.014;2023-07-08T12:38:37;31.20;87.00
56162;DHT22;42045;52.986;6.014;2023-07-08T12:41:20;31.30;87.00
56162;DHT22;42045;52.986;6.014;2023-07-08T12:43:46;31.30;82.80
56162;DHT22;42045;52.986;6.014;2023-07-08T12:46:17;31.30;86.80
56162;DHT22;42045;52.986;6.014;2023-07-08T12:48:42;31.30;82.90
56162;DHT22;42045;52.986;6.014;2023-07-08T12:51:14;31.40;84.70
56162;DHT22;42045;52.986;6.014;2023-07-08T12:53:40;31.40;84.00
56162;DHT22;42045;52.986;6.014;2023-07-08T12:56:07;31.40;84.90
56162;DHT22;42045;52.986;6.014;2023-07-08T12:58:37;31.50;84.40
56162;DHT22;42045;52.986;6.014;2023-07-08T13:01:06;31.50;84.10
56162;DHT22;42045;52.986;6.014;2023-07-08T13:03:36;31.60;83.40
56162;DHT22;42045;52.986;6.014;2023-07-08T13:06:02;31.60;84.00
56162;DHT22;42045;52.986;6.014;2023-07-08T13:08:33;31.70;84.40
56162;DHT22;42045;52.986;6.014;2023-07-08T13:11:01;31.70;83.80
56162;DHT22;42045;52.986;6.014;2023-07-08T13:13:40;31.60;83.20
56162;DHT22;42045;52.986;6.014;2023-07-08T13:16:09;31.70;82.50
56162;DHT22;42045;52.986;6.014;2023-07-08T13:18:40;31.60;80.90
56162;DHT22;42045;52.986;6.014;2023-07-08T13:21:11;31.50;83.70
56162;DHT22;42045;52.986;6.014;2023-07-08T13:23:38;31.50;83.20
56162;DHT22;42045;52.986;6.014;2023-07-08T13:26:18;31.60;84.70
56162;DHT22;42045;52.986;6.014;2023-07-08T13:28:45;31.70;84.70
56162;DHT22;42045;52.986;6.014;2023-07-08T13:31:22;31.60;82.60
56162;DHT22;42045;52.986;6.014;2023-07-08T13:33:50;31.70;84.20
56162;DHT22;42045;52.986;6.014;2023-07-08T13:36:31;31.70;84.40
56162;DHT22;42045;52.986;6.014;2023-07-08T13:38:57;31.80;82.50
56162;DHT22;42045;52.986;6.014;2023-07-08T13:41:24;31.70;81.50
56162;DHT22;42045;52.986;6.014;2023-07-08T13:43:50;31.80;82.40
56162;DHT22;42045;52.986;6.014;2023-07-08T13:46:33;31.80;82.60
56162;DHT22;42045;52.986;6.014;2023-07-08T13:49:14;31.80;85.20
56162;DHT22;42045;52.986;6.014;2023-07-08T13:51:41;31.70;82.00
56162;DHT22;42045;52.986;6.014;2023-07-08T13:54:21;31.80;82.50
56162;DHT22;42045;52.986;6.014;2023-07-08T13:56:48;31.80;83.40
56162;DHT22;42045;52.986;6.014;2023-07-08T13:59:25;31.90;83.20
56162;DHT22;42045;52.986;6.014;2023-07-08T14:01:53;31.90;82.80
56162;DHT22;42045;52.986;6.014;2023-07-08T14:04:27;32.00;83.20
56162;DHT22;42045;52.986;6.014;2023-07-08T14:06:53;32.00;80.90
56162;DHT22;42045;52.986;6.014;2023-07-08T14:09:21;32.10;82.70
56162;DHT22;42045;52.986;6.014;2023-07-08T14:11:49;32.10;84.60
56162;DHT22;42045;52.986;6.014;2023-07-08T14:14:15;32.00;86.40
56162;DHT22;42045;52.986;6.014;2023-07-08T14:16:43;32.00;82.20
56162;DHT22;42045;52.986;6.014;2023-07-08T14:19:15;32.00;84.30
56162;DHT22;42045;52.986;6.014;2023-07-08T14:21:42;32.00;82.60
56162;DHT22;42045;52.986;6.014;2023-07-08T14:24:13;32.00;82.50
56162;DHT22;42045;52.986;6.014;2023-07-08T14:26:46;31.90;80.80
56162;DHT22;42045;52.986;6.014;2023-07-08T14:29:12;32.00;80.20
56162;DHT22;42045;52.986;6.014;2023-07-08T14:31:39;32.00;81.80
56162;DHT22;42045;52.986;6.014;2023-07-08T14:34:18;32.00;83.00
56162;DHT22;42045;52.986;6.014;2023-07-08T14:36:47;31.90;83.00
56162;DHT22;42045;52.986;6.014;2023-07-08T14:39:14;32.00;84.30
56162;DHT22;42045;52.986;6.014;2023-07-08T14:41:40;31.90;83.60
56162;DHT22;42045;52.986;6.014;2023-07-08T14:44:30;31.90;85.10
56162;DHT22;42045;52.986;6.014;2023-07-08T14:46:56;31.80;83.20
56162;DHT22;42045;52.986;6.014;2023-07-08T14:49:23;31.80;83.50
56162;DHT22;42045;52.986;6.014;2023-07-08T14:51:49;31.80;84.50
56162;DHT22;42045;52.986;6.014;2023-07-08T14:54:16;31.80;84.80
56162;DHT22;42045;52.986;6.014;2023-07-08T14:56:42;31.90;85.70
56162;DHT22;42045;52.986;6.014;2023-07-08T14:59:14;31.80;85.30
56162;DHT22;42045;52.986;6.014;2023-07-08T15:01:40;31.80;85.20
56162;DHT22;42045;52.986;6.014;2023-07-08T15:04:11;31.80;83.00
56162;DHT22;42045;52.986;6.014;2023-07-08T15:06:37;31.80;83.70
56162;DHT22;42045;52.986;6.014;2023-07-08T15:09:03;31.70;86.10
56162;DHT22;42045;52.986;6.014;2023-07-08T15:11:31;31.70;86.40
56162;DHT22;42045;52.986;6.014;2023-07-08T15:13:56;31.70;86.00
56162;DHT22;42045;52.986;6.014;2023-07-08T15:16:22;31.70;86.00
56162;DHT22;42045;52.986;6.014;2023-07-08T15:18:48;31.70;88.30
56162;DHT22;42045;52.986;6.014;2023-07-08T15:21:14;31.60;89.10
56162;DHT22;42045;52.986;6.014;2023-07-08T15:23:41;31.60;88.80
56162;DHT22;42045;52.986;6.014;2023-07-08T15:26:13;31.60;85.40
56162;DHT22;42045;52.986;6.014;2023-07-08T15:28:40;31.50;84.10
56162;DHT22;42045;52.986;6.014;2023-07-08T15:31:10;31.50;84.20
56162;DHT22;42045;52.986;6.014;2023-07-08T15:33:38;31.60;84.30
56162;DHT22;42045;52.986;6.014;2023-07-08T15:36:04;31.60;83.60
56162;DHT22;42045;52.986;6.014;2023-07-08T15:38:30;31.60;84.70
56162;DHT22;42045;52.986;6.014;2023-07-08T15:40:55;31.50;83.70
56162;DHT22;42045;52.986;6.014;2023-07-08T15:43:21;31.50;82.90
56162;DHT22;42045;52.986;6.014;2023-07-08T15:45:47;31.50;84.00
56162;DHT22;42045;52.986;6.014;2023-07-08T15:48:17;31.50;83.40
56162;DHT22;42045;52.986;6.014;2023-07-08T15:50:44;31.50;84.40
56162;DHT22;42045;52.986;6.014;2023-07-08T15:53:10;31.50;84.90
56162;DHT22;42045;52.986;6.014;2023-07-08T15:55:38;31.50;84.10
56162;DHT22;42045;52.986;6.014;2023-07-08T15:58:13;31.40;83.40
56162;DHT22;42045;52.986;6.014;2023-07-08T16:00:40;31.40;77.80
56162;DHT22;42045;52.986;6.014;2023-07-08T16:03:11;31.30;81.70
56162;DHT22;42045;52.986;6.014;2023-07-08T16:05:37;31.30;82.80
56162;DHT22;42045;52.986;6.014;2023-07-08T16:08:03;31.30;82.40
56162;DHT22;42045;52.986;6.014;2023-07-08T16:10:30;31.30;82.10
56162;DHT22;42045;52.986;6.014;2023-07-08T16:12:55;31.20;82.40
56162;DHT22;42045;52.986;6.014;2023-07-08T16:15:43;31.20;83.70
56162;DHT22;42045;52.986;6.014;2023-07-08T16:18:11;31.20;85.40
56162;DHT22;42045;52.986;6.014;2023-07-08T16:20:37;31.10;87.60
56162;DHT22;42045;52.986;6.014;2023-07-08T16:23:03;30.90;86.40
56162;DHT22;42045;52.986;6.014;2023-07-08T16:25:36;30.90;86.00
56162;DHT22;42045;52.986;6.014;2023-07-08T16:28:04;31.00;87.10
56162;DHT22;42045;52.986;6.014;2023-07-08T16:30:30;30.90;87.60
56162;DHT22;42045;52.986;6.014;2023-07-08T16:32:56;30.90;89.80
56162;DHT22;42045;52.986;6.014;2023-07-08T16:35:22;30.80;90.50
56162;DHT22;42045;52.986;6.014;2023-07-08T16:37:50;30.70;90.40
56162;DHT22;42045;52.986;6.014;2023-07-08T16:40:22;30.80;91.30
56162;DHT22;42045;52.986;6.014;2023-07-08T16:42:49;30.70;92.10